Sonangol Maiombe — C6DC7 — position and weather

sailwx.info

Track history (hours):
 
Tides and Currents Weather Stations Pressure Air Temp Water Temp Dewpoint Dewpoint Depression Visibility Wind Speed Wind Dir Waves Ship Positions

Sonangol Maiombe

Last reported at 2018-Jul-20 23:58 UTC. Time now 2018-Jul-21 00:01 UTC.
Position N 34°24' W 125°03'.

Length 274 m; draft 9.3 m.

Type: Tanker. MMSI: 311000639.

Date/timePositionNaut miles runAvg speedWind from/ knotsBaromVisibWave heightAir tempDewpointWater temp
2018-Jul-20 23:58N 34°24' W 125°03'4711.5
2018-Jul-20 19:51N 35°11' W 124°57'2912.7
2018-Jul-20 17:35N 35°35' W 124°39'2312.9
2018-Jul-20 15:48N 35°55' W 124°25'3812.7
2018-Jul-20 12:47N 36°28' W 124°00'812.7
2018-Jul-20 12:11N 36°34' W 123°55'212.9
2018-Jul-20 12:00N 36°36' W 123°53'712.8
2018-Jul-20 11:29N 36°42' W 123°49'612.8
2018-Jul-20 11:00N 36°48' W 123°46'812.7
2018-Jul-20 10:21N 36°55' W 123°42'412.6
2018-Jul-20 10:00N 36°59' W 123°40'612.2
2018-Jul-20 09:31N 37°05' W 123°37'612.4
2018-Jul-20 08:59N 37°11' W 123°34'612.4
2018-Jul-20 08:30N 37°16' W 123°31'612.8
2018-Jul-20 08:00N 37°20' W 123°24'612.6
2018-Jul-20 07:30N 37°24' W 123°18'612.5
2018-Jul-20 07:00N 37°29' W 123°12'612.8
2018-Jul-20 06:30N 37°32' W 123°06'612.4
2018-Jul-20 06:00N 37°36' W 122°60'612.6
2018-Jul-20 05:30N 37°40' W 122°53'611.9
2018-Jul-20 05:00N 37°43' W 122°47'510.7
2018-Jul-20 04:30N 37°46' W 122°41'510.1
2018-Jul-20 04:00N 37°47' W 122°35'713.6
2018-Jul-20 03:30N 37°50' W 122°27'4 8.0
2018-Jul-20 03:00N 37°54' W 122°26'511.0
2018-Jul-20 02:30N 37°60' W 122°25'611.1
2018-Jul-20 02:00N 38°03' W 122°20'510.1
2018-Jul-20 01:31N 38°04' W 122°14'4 8.2
2018-Jul-20 01:00N 38°02' W 122°09'1 1.4
2018-Jul-20 00:24N 38°02' W 122°08'0 0.0
2018-Jul-19 10:36N 38°02' W 122°08'0 0.0
2018-Jul-19 10:12N 38°02' W 122°08'0 0.0
2018-Jul-19 08:48N 38°02' W 122°08'0 0.0
2018-Jul-19 07:06N 38°02' W 122°08'0 0.0
2018-Jul-19 06:54N 38°02' W 122°08'0 0.0
2018-Jul-18 01:24N 38°02' W 122°08'0 0.0
2018-Jul-17 23:03N 38°02' W 122°08'0 1.2
2018-Jul-17 23:00N 38°02' W 122°08'0 0.8
2018-Jul-17 22:30N 38°02' W 122°08'3 5.7
2018-Jul-17 22:00N 38°03' W 122°12'4 9.2
2018-Jul-17 21:30N 38°03' W 122°17'5 9.8
2018-Jul-17 21:00N 38°01' W 122°23'510.5
2018-Jul-17 20:30N 37°57' W 122°27'510.5
2018-Jul-17 20:00N 37°52' W 122°25'3 6.5
2018-Jul-17 19:30N 37°49' W 122°26'4 8.9
2018-Jul-17 19:00N 37°48' W 122°32'612.1
2018-Jul-17 18:30N 37°46' W 122°39'5 9.6
2018-Jul-17 18:00N 37°43' W 122°43'4 8.5
2018-Jul-17 17:30N 37°40' W 122°48'5 9.5
2018-Jul-17 17:00N 37°37' W 122°53'5 9.8
2018-Jul-17 16:30N 37°35' W 122°58'510.3
2018-Jul-17 16:00N 37°32' W 123°03'4 8.7
2018-Jul-17 15:30N 37°29' W 123°08'612.5
2018-Jul-17 15:00N 37°26' W 123°14'612.3
2018-Jul-17 14:30N 37°22' W 123°20'612.3
2018-Jul-17 14:00N 37°18' W 123°27'611.7
2018-Jul-17 13:30N 37°14' W 123°32'612.0
2018-Jul-17 13:00N 37°09' W 123°35'611.9
2018-Jul-17 12:30N 37°03' W 123°38'611.9
2018-Jul-17 12:00N 36°58' W 123°41'611.7
2018-Jul-17 11:30N 36°52' W 123°43'611.8
2018-Jul-17 11:00N 36°47' W 123°47'611.6
2018-Jul-17 10:30N 36°42' W 123°50'611.5
2018-Jul-17 10:00N 36°37' W 123°54'611.4
2018-Jul-17 09:30N 36°32' W 123°57'611.4
2018-Jul-17 09:00N 36°27' W 124°01'611.7
2018-Jul-17 08:30N 36°22' W 124°05'611.8
2018-Jul-17 08:00N 36°17' W 124°08'611.9
2018-Jul-17 07:30N 36°12' W 124°12'611.9
2018-Jul-17 07:00N 36°07' W 124°16'612.2
2018-Jul-17 06:30N 36°02' W 124°20'612.3
2018-Jul-17 06:00N 35°56' W 124°24'612.2
2018-Jul-17 05:30N 35°51' W 124°27'612.4
2018-Jul-17 05:00N 35°46' W 124°32'612.5
2018-Jul-17 04:30N 35°40' W 124°35'712.5
2018-Jul-17 03:57N 35°34' W 124°40'612.4
2018-Jul-17 03:30N 35°30' W 124°43'612.4
2018-Jul-17 03:00N 35°24' W 124°47'612.3
2018-Jul-17 02:30N 35°19' W 124°51'612.2
2018-Jul-17 02:00N 35°14' W 124°55'612.4
2018-Jul-17 01:30N 35°08' W 124°58'612.4
2018-Jul-17 01:00N 35°03' W 125°03'612.6
2018-Jul-17 00:30N 34°58' W 125°07'1212.2
2018-Jul-16 23:30N 34°47' W 125°14'612.5
2018-Jul-16 23:00N 34°41' W 125°11'612.5
2018-Jul-16 22:30N 34°36' W 125°09'1112.5
2018-Jul-16 21:39N 34°26' W 125°04'412.2
2018-Jul-16 21:20N 34°22' W 125°02'512.3
2018-Jul-16 20:56N 34°18' W 125°00'512.5
2018-Jul-16 20:30N 34°13' W 124°58'612.1
2018-Jul-16 20:00N 34°07' W 124°55'812.3
2018-Jul-16 19:20N 33°59' W 124°52'512.3
2018-Jul-16 18:54N 33°54' W 124°50'2212.3
2018-Jul-16 17:05N 33°34' W 124°39'112.8
2018-Jul-16 17:00N 33°33' W 124°38'613.0
2018-Jul-16 16:30N 33°29' W 124°32'712.7
2018-Jul-16 15:59N 33°24' W 124°26'1312.3
2018-Jul-16 14:54N 33°15' W 124°14'512.1
2018-Jul-16 14:30N 33°12' W 124°10'1512.0
2018-Jul-16 13:13N 33°02' W 123°56'2712.2
2018-Jul-16 11:02N 32°44' W 123°33'012.5
2018-Jul-16 11:00N 32°44' W 123°32'612.0
2018-Jul-16 10:30N 32°40' W 123°26'612.2
2018-Jul-16 10:00N 32°38' W 123°20'612.1
2018-Jul-16 09:28N 32°35' W 123°13'612.1
2018-Jul-16 09:00N 32°32' W 123°07'612.1
2018-Jul-16 08:30N 32°29' W 123°01'612.0
2018-Jul-16 08:00N 32°26' W 122°55'611.9
2018-Jul-16 07:29N 32°24' W 122°48'612.1
2018-Jul-16 07:00N 32°21' W 122°42'611.9
2018-Jul-16 06:30N 32°18' W 122°36'611.9
2018-Jul-16 05:59N 32°15' W 122°29'612.1
2018-Jul-16 05:30N 32°12' W 122°23'612.0
2018-Jul-16 05:00N 32°09' W 122°17'712.0
2018-Jul-16 04:26N 32°06' W 122°10'612.2
2018-Jul-16 03:55N 32°03' W 122°03'512.3
2018-Jul-16 03:30N 32°01' W 121°58'612.3
2018-Jul-16 03:00N 31°58' W 121°51'712.3
2018-Jul-16 02:26N 31°56' W 121°44'512.1
2018-Jul-16 02:00N 31°55' W 121°38'612.2
2018-Jul-16 01:30N 31°53' W 121°31'612.2
2018-Jul-16 01:00N 31°51' W 121°24'612.2
2018-Jul-16 00:29N 31°50' W 121°17'612.2
2018-Jul-16 00:00N 31°49' W 121°10'612.2
2018-Jul-15 23:30N 31°47' W 121°03'611.9
2018-Jul-15 23:00N 31°46' W 120°56'612.2
2018-Jul-15 22:30N 31°44' W 120°49'612.4
2018-Jul-15 22:00N 31°43' W 120°42'612.6
2018-Jul-15 21:30N 31°41' W 120°35'612.7
2018-Jul-15 21:00N 31°39' W 120°28'612.6
2018-Jul-15 20:30N 31°38' W 120°21'612.6
2018-Jul-15 20:00N 31°36' W 120°14'612.7
2018-Jul-15 19:30N 31°35' W 120°06'612.4
2018-Jul-15 19:00N 31°33' W 119°59'612.3
2018-Jul-15 18:30N 31°32' W 119°52'612.1
2018-Jul-15 18:00N 31°30' W 119°45'612.1
2018-Jul-15 17:30N 31°29' W 119°38'611.8
2018-Jul-15 17:00N 31°27' W 119°32'611.8
2018-Jul-15 16:30N 31°26' W 119°25'611.9
2018-Jul-15 16:00N 31°25' W 119°18'611.9
2018-Jul-15 15:30N 31°23' W 119°11'611.9
2018-Jul-15 15:00N 31°22' W 119°05'612.1
2018-Jul-15 14:30N 31°20' W 118°58'612.0
2018-Jul-15 14:00N 31°19' W 118°51'611.9
2018-Jul-15 13:30N 31°18' W 118°44'611.4
2018-Jul-15 13:00N 31°16' W 118°38'2 2.8
2018-Jul-15 12:25N 31°16' W 118°36'1 2.7
2018-Jul-15 12:00N 31°17' W 118°37'1 2.7
2018-Jul-15 11:30N 31°17' W 118°38'1 2.8
2018-Jul-15 11:00N 31°17' W 118°40'1 2.7
2018-Jul-15 10:30N 31°18' W 118°42'1 2.7
2018-Jul-15 10:00N 31°18' W 118°43'2 3.3
2018-Jul-15 09:29N 31°18' W 118°45'2 3.3
2018-Jul-15 09:00N 31°19' W 118°47'1 2.9
2018-Jul-15 08:30N 31°20' W 118°48'2 3.6
2018-Jul-15 07:57N 31°21' W 118°50'2 3.0
2018-Jul-15 07:25N 31°23' W 118°51'1 2.2
2018-Jul-15 07:00N 31°23' W 118°51'3 1.7
2018-Jul-15 05:03N 31°26' W 118°54'0 2.7
2018-Jul-15 04:58N 31°26' W 118°54'2 1.9
2018-Jul-15 04:05N 31°28' W 118°55'1 2.1
2018-Jul-15 03:47N 31°28' W 118°55'1 2.2
2018-Jul-15 03:08N 31°29' W 118°56'0 2.4
2018-Jul-15 02:58N 31°30' W 118°56'1 2.3
2018-Jul-15 02:30N 31°31' W 118°57'2 2.4
2018-Jul-15 01:46N 31°32' W 118°58'1 2.4
2018-Jul-15 01:23N 31°33' W 118°58'1 2.5
2018-Jul-15 01:00N 31°34' W 118°59'1 2.9
2018-Jul-15 00:30N 31°35' W 118°60'2 2.5
2018-Jul-14 23:46N 31°37' W 119°01'1 1.8
2018-Jul-14 23:24N 31°37' W 119°01'1 2.0
2018-Jul-14 22:57N 31°38' W 119°02'1 2.2
2018-Jul-14 22:30N 31°39' W 119°03'1 2.5
2018-Jul-14 22:00N 31°40' W 119°03'1 1.7
2018-Jul-14 21:29N 31°41' W 119°04'0 0.9
2018-Jul-14 21:00N 31°41' W 119°04'1 1.3
2018-Jul-14 20:30N 31°41' W 119°05'1 1.6
2018-Jul-14 20:00N 31°42' W 119°05'1 2.1
2018-Jul-14 19:30N 31°43' W 119°06'1 2.2
2018-Jul-14 19:00N 31°44' W 119°07'1 1.3
2018-Jul-14 18:30N 31°44' W 119°07'1 1.6
2018-Jul-14 17:59N 31°45' W 119°08'1 2.2
2018-Jul-14 17:30N 31°46' W 119°08'1 1.8
2018-Jul-14 16:58N 31°47' W 119°09'1 2.7
2018-Jul-14 16:30N 31°47' W 119°10'2 5.0
2018-Jul-14 16:00N 31°49' W 119°12'3 5.7
2018-Jul-14 15:29N 31°51' W 119°15'3 5.7
2018-Jul-14 15:00N 31°53' W 119°17'3 5.4
2018-Jul-14 14:30N 31°55' W 119°19'4 4.3
2018-Jul-14 13:30N 31°58' W 119°23'1 2.8
2018-Jul-14 13:00N 31°59' W 119°24'1 2.4
2018-Jul-14 12:30N 31°59' W 119°26'1 2.5
2018-Jul-14 12:00N 31°60' W 119°27'1 1.6
2018-Jul-14 11:30N 31°60' W 119°28'1 1.9
2018-Jul-14 11:00N 32°00' W 119°29'1 1.3
2018-Jul-14 10:30N 32°00' W 119°30'0 0.2
2018-Jul-14 10:00N 32°00' W 119°30'0 0.5
2018-Jul-14 09:30N 32°00' W 119°30'0 0.8
2018-Jul-14 09:00N 32°01' W 119°30'1 1.7
2018-Jul-14 08:22N 32°02' W 119°31'3 8.0
2018-Jul-14 08:00N 31°60' W 119°28'612.0
2018-Jul-14 07:30N 31°56' W 119°22'611.8
2018-Jul-14 07:00N 31°53' W 119°17'611.8
2018-Jul-14 06:30N 31°49' W 119°11'612.0
2018-Jul-14 06:00N 31°46' W 119°05'612.0
2018-Jul-14 05:30N 31°42' W 118°60'611.8
2018-Jul-14 05:00N 31°39' W 118°54'611.8
2018-Jul-14 04:30N 31°36' W 118°48'611.5
2018-Jul-14 04:00N 31°32' W 118°43'611.6
2018-Jul-14 03:30N 31°29' W 118°37'611.5
2018-Jul-14 03:00N 31°26' W 118°31'5 9.3
2018-Jul-14 02:30N 31°24' W 118°27'3 5.6
2018-Jul-14 02:00N 31°22' W 118°24'3 6.8
2018-Jul-14 01:30N 31°20' W 118°21'3 5.3
2018-Jul-14 01:00N 31°18' W 118°19'0 0.8
2018-Jul-14 00:30N 31°18' W 118°18'0 0.6
2018-Jul-14 00:00N 31°18' W 118°19'0 0.8
2018-Jul-13 23:30N 31°17' W 118°18'2 4.8
2018-Jul-13 23:00N 31°16' W 118°16'610.5
2018-Jul-13 22:26N 31°13' W 118°10'512.3
2018-Jul-13 22:00N 31°10' W 118°05'1012.6
2018-Jul-13 21:10N 31°04' W 117°55'212.7
2018-Jul-13 21:00N 31°02' W 117°53'612.8
2018-Jul-13 20:30N 30°58' W 117°47'812.0
2018-Jul-13 19:49N 30°51' W 117°42'411.1
2018-Jul-13 19:28N 30°48' W 117°40'  
Track history (hours):
 
Tides and Currents Weather Stations Pressure Air Temp Water Temp Dewpoint Dewpoint Depression Visibility Wind Speed Wind Dir Waves Ship Positions

Sonangol Maiombe

Last reported at 2018-Jul-20 23:58 UTC. Time now 2018-Jul-21 00:01 UTC.
Position N 34°24' W 125°03'.

Length 274 m; draft 9.3 m.

Type: Tanker. MMSI: 311000639.

Date/timePositionNaut miles runAvg speedWind from/ knotsBaromVisibWave heightAir tempDewpointWater temp
2018-Jul-20 23:58N 34°24' W 125°03'4711.5
2018-Jul-20 19:51N 35°11' W 124°57'2912.7
2018-Jul-20 17:35N 35°35' W 124°39'2312.9
2018-Jul-20 15:48N 35°55' W 124°25'3812.7
2018-Jul-20 12:47N 36°28' W 124°00'812.7
2018-Jul-20 12:11N 36°34' W 123°55'212.9
2018-Jul-20 12:00N 36°36' W 123°53'712.8
2018-Jul-20 11:29N 36°42' W 123°49'612.8
2018-Jul-20 11:00N 36°48' W 123°46'812.7
2018-Jul-20 10:21N 36°55' W 123°42'412.6
2018-Jul-20 10:00N 36°59' W 123°40'612.2
2018-Jul-20 09:31N 37°05' W 123°37'612.4
2018-Jul-20 08:59N 37°11' W 123°34'612.4
2018-Jul-20 08:30N 37°16' W 123°31'612.8
2018-Jul-20 08:00N 37°20' W 123°24'612.6
2018-Jul-20 07:30N 37°24' W 123°18'612.5
2018-Jul-20 07:00N 37°29' W 123°12'612.8
2018-Jul-20 06:30N 37°32' W 123°06'612.4
2018-Jul-20 06:00N 37°36' W 122°60'612.6
2018-Jul-20 05:30N 37°40' W 122°53'611.9
2018-Jul-20 05:00N 37°43' W 122°47'510.7
2018-Jul-20 04:30N 37°46' W 122°41'510.1
2018-Jul-20 04:00N 37°47' W 122°35'713.6
2018-Jul-20 03:30N 37°50' W 122°27'4 8.0
2018-Jul-20 03:00N 37°54' W 122°26'511.0
2018-Jul-20 02:30N 37°60' W 122°25'611.1
2018-Jul-20 02:00N 38°03' W 122°20'510.1
2018-Jul-20 01:31N 38°04' W 122°14'4 8.2
2018-Jul-20 01:00N 38°02' W 122°09'1 1.4
2018-Jul-20 00:24N 38°02' W 122°08'0 0.0
2018-Jul-19 10:36N 38°02' W 122°08'0 0.0
2018-Jul-19 10:12N 38°02' W 122°08'0 0.0
2018-Jul-19 08:48N 38°02' W 122°08'0 0.0
2018-Jul-19 07:06N 38°02' W 122°08'0 0.0
2018-Jul-19 06:54N 38°02' W 122°08'0 0.0
2018-Jul-18 01:24N 38°02' W 122°08'0 0.0
2018-Jul-17 23:03N 38°02' W 122°08'0 1.2
2018-Jul-17 23:00N 38°02' W 122°08'0 0.8
2018-Jul-17 22:30N 38°02' W 122°08'3 5.7
2018-Jul-17 22:00N 38°03' W 122°12'4 9.2
2018-Jul-17 21:30N 38°03' W 122°17'5 9.8
2018-Jul-17 21:00N 38°01' W 122°23'510.5
2018-Jul-17 20:30N 37°57' W 122°27'510.5
2018-Jul-17 20:00N 37°52' W 122°25'3 6.5
2018-Jul-17 19:30N 37°49' W 122°26'4 8.9
2018-Jul-17 19:00N 37°48' W 122°32'612.1
2018-Jul-17 18:30N 37°46' W 122°39'5 9.6
2018-Jul-17 18:00N 37°43' W 122°43'4 8.5
2018-Jul-17 17:30N 37°40' W 122°48'5 9.5
2018-Jul-17 17:00N 37°37' W 122°53'5 9.8
2018-Jul-17 16:30N 37°35' W 122°58'510.3
2018-Jul-17 16:00N 37°32' W 123°03'4 8.7
2018-Jul-17 15:30N 37°29' W 123°08'612.5
2018-Jul-17 15:00N 37°26' W 123°14'612.3
2018-Jul-17 14:30N 37°22' W 123°20'612.3
2018-Jul-17 14:00N 37°18' W 123°27'611.7
2018-Jul-17 13:30N 37°14' W 123°32'612.0
2018-Jul-17 13:00N 37°09' W 123°35'611.9
2018-Jul-17 12:30N 37°03' W 123°38'611.9
2018-Jul-17 12:00N 36°58' W 123°41'611.7
2018-Jul-17 11:30N 36°52' W 123°43'611.8
2018-Jul-17 11:00N 36°47' W 123°47'611.6
2018-Jul-17 10:30N 36°42' W 123°50'611.5
2018-Jul-17 10:00N 36°37' W 123°54'611.4
2018-Jul-17 09:30N 36°32' W 123°57'611.4
2018-Jul-17 09:00N 36°27' W 124°01'611.7
2018-Jul-17 08:30N 36°22' W 124°05'611.8
2018-Jul-17 08:00N 36°17' W 124°08'611.9
2018-Jul-17 07:30N 36°12' W 124°12'611.9
2018-Jul-17 07:00N 36°07' W 124°16'612.2
2018-Jul-17 06:30N 36°02' W 124°20'612.3
2018-Jul-17 06:00N 35°56' W 124°24'612.2
2018-Jul-17 05:30N 35°51' W 124°27'612.4
2018-Jul-17 05:00N 35°46' W 124°32'612.5
2018-Jul-17 04:30N 35°40' W 124°35'712.5
2018-Jul-17 03:57N 35°34' W 124°40'612.4
2018-Jul-17 03:30N 35°30' W 124°43'612.4
2018-Jul-17 03:00N 35°24' W 124°47'612.3
2018-Jul-17 02:30N 35°19' W 124°51'612.2
2018-Jul-17 02:00N 35°14' W 124°55'612.4
2018-Jul-17 01:30N 35°08' W 124°58'612.4
2018-Jul-17 01:00N 35°03' W 125°03'612.6
2018-Jul-17 00:30N 34°58' W 125°07'1212.2
2018-Jul-16 23:30N 34°47' W 125°14'612.5
2018-Jul-16 23:00N 34°41' W 125°11'612.5
2018-Jul-16 22:30N 34°36' W 125°09'1112.5
2018-Jul-16 21:39N 34°26' W 125°04'412.2
2018-Jul-16 21:20N 34°22' W 125°02'512.3
2018-Jul-16 20:56N 34°18' W 125°00'512.5
2018-Jul-16 20:30N 34°13' W 124°58'612.1
2018-Jul-16 20:00N 34°07' W 124°55'812.3
2018-Jul-16 19:20N 33°59' W 124°52'512.3
2018-Jul-16 18:54N 33°54' W 124°50'2212.3
2018-Jul-16 17:05N 33°34' W 124°39'112.8
2018-Jul-16 17:00N 33°33' W 124°38'613.0
2018-Jul-16 16:30N 33°29' W 124°32'712.7
2018-Jul-16 15:59N 33°24' W 124°26'1312.3
2018-Jul-16 14:54N 33°15' W 124°14'512.1
2018-Jul-16 14:30N 33°12' W 124°10'1512.0
2018-Jul-16 13:13N 33°02' W 123°56'2712.2
2018-Jul-16 11:02N 32°44' W 123°33'012.5
2018-Jul-16 11:00N 32°44' W 123°32'612.0
2018-Jul-16 10:30N 32°40' W 123°26'612.2
2018-Jul-16 10:00N 32°38' W 123°20'612.1
2018-Jul-16 09:28N 32°35' W 123°13'612.1
2018-Jul-16 09:00N 32°32' W 123°07'612.1
2018-Jul-16 08:30N 32°29' W 123°01'612.0
2018-Jul-16 08:00N 32°26' W 122°55'611.9
2018-Jul-16 07:29N 32°24' W 122°48'612.1
2018-Jul-16 07:00N 32°21' W 122°42'611.9
2018-Jul-16 06:30N 32°18' W 122°36'611.9
2018-Jul-16 05:59N 32°15' W 122°29'612.1
2018-Jul-16 05:30N 32°12' W 122°23'612.0
2018-Jul-16 05:00N 32°09' W 122°17'712.0
2018-Jul-16 04:26N 32°06' W 122°10'612.2
2018-Jul-16 03:55N 32°03' W 122°03'512.3
2018-Jul-16 03:30N 32°01' W 121°58'612.3
2018-Jul-16 03:00N 31°58' W 121°51'712.3
2018-Jul-16 02:26N 31°56' W 121°44'512.1
2018-Jul-16 02:00N 31°55' W 121°38'612.2
2018-Jul-16 01:30N 31°53' W 121°31'612.2
2018-Jul-16 01:00N 31°51' W 121°24'612.2
2018-Jul-16 00:29N 31°50' W 121°17'612.2
2018-Jul-16 00:00N 31°49' W 121°10'612.2
2018-Jul-15 23:30N 31°47' W 121°03'611.9
2018-Jul-15 23:00N 31°46' W 120°56'612.2
2018-Jul-15 22:30N 31°44' W 120°49'612.4
2018-Jul-15 22:00N 31°43' W 120°42'612.6
2018-Jul-15 21:30N 31°41' W 120°35'612.7
2018-Jul-15 21:00N 31°39' W 120°28'612.6
2018-Jul-15 20:30N 31°38' W 120°21'612.6
2018-Jul-15 20:00N 31°36' W 120°14'612.7
2018-Jul-15 19:30N 31°35' W 120°06'612.4
2018-Jul-15 19:00N 31°33' W 119°59'612.3
2018-Jul-15 18:30N 31°32' W 119°52'612.1
2018-Jul-15 18:00N 31°30' W 119°45'612.1
2018-Jul-15 17:30N 31°29' W 119°38'611.8
2018-Jul-15 17:00N 31°27' W 119°32'611.8
2018-Jul-15 16:30N 31°26' W 119°25'611.9
2018-Jul-15 16:00N 31°25' W 119°18'611.9
2018-Jul-15 15:30N 31°23' W 119°11'611.9
2018-Jul-15 15:00N 31°22' W 119°05'612.1
2018-Jul-15 14:30N 31°20' W 118°58'612.0
2018-Jul-15 14:00N 31°19' W 118°51'611.9
2018-Jul-15 13:30N 31°18' W 118°44'611.4
2018-Jul-15 13:00N 31°16' W 118°38'2 2.8
2018-Jul-15 12:25N 31°16' W 118°36'1 2.7
2018-Jul-15 12:00N 31°17' W 118°37'1 2.7
2018-Jul-15 11:30N 31°17' W 118°38'1 2.8
2018-Jul-15 11:00N 31°17' W 118°40'1 2.7
2018-Jul-15 10:30N 31°18' W 118°42'1 2.7
2018-Jul-15 10:00N 31°18' W 118°43'2 3.3
2018-Jul-15 09:29N 31°18' W 118°45'2 3.3
2018-Jul-15 09:00N 31°19' W 118°47'1 2.9
2018-Jul-15 08:30N 31°20' W 118°48'2 3.6
2018-Jul-15 07:57N 31°21' W 118°50'2 3.0
2018-Jul-15 07:25N 31°23' W 118°51'1 2.2
2018-Jul-15 07:00N 31°23' W 118°51'3 1.7
2018-Jul-15 05:03N 31°26' W 118°54'0 2.7
2018-Jul-15 04:58N 31°26' W 118°54'2 1.9
2018-Jul-15 04:05N 31°28' W 118°55'1 2.1
2018-Jul-15 03:47N 31°28' W 118°55'1 2.2
2018-Jul-15 03:08N 31°29' W 118°56'0 2.4
2018-Jul-15 02:58N 31°30' W 118°56'1 2.3
2018-Jul-15 02:30N 31°31' W 118°57'2 2.4
2018-Jul-15 01:46N 31°32' W 118°58'1 2.4
2018-Jul-15 01:23N 31°33' W 118°58'1 2.5
2018-Jul-15 01:00N 31°34' W 118°59'1 2.9
2018-Jul-15 00:30N 31°35' W 118°60'2 2.5
2018-Jul-14 23:46N 31°37' W 119°01'1 1.8
2018-Jul-14 23:24N 31°37' W 119°01'1 2.0
2018-Jul-14 22:57N 31°38' W 119°02'1 2.2
2018-Jul-14 22:30N 31°39' W 119°03'1 2.5
2018-Jul-14 22:00N 31°40' W 119°03'1 1.7
2018-Jul-14 21:29N 31°41' W 119°04'0 0.9
2018-Jul-14 21:00N 31°41' W 119°04'1 1.3
2018-Jul-14 20:30N 31°41' W 119°05'1 1.6
2018-Jul-14 20:00N 31°42' W 119°05'1 2.1
2018-Jul-14 19:30N 31°43' W 119°06'1 2.2
2018-Jul-14 19:00N 31°44' W 119°07'1 1.3
2018-Jul-14 18:30N 31°44' W 119°07'1 1.6
2018-Jul-14 17:59N 31°45' W 119°08'1 2.2
2018-Jul-14 17:30N 31°46' W 119°08'1 1.8
2018-Jul-14 16:58N 31°47' W 119°09'1 2.7
2018-Jul-14 16:30N 31°47' W 119°10'2 5.0
2018-Jul-14 16:00N 31°49' W 119°12'3 5.7
2018-Jul-14 15:29N 31°51' W 119°15'3 5.7
2018-Jul-14 15:00N 31°53' W 119°17'3 5.4
2018-Jul-14 14:30N 31°55' W 119°19'4 4.3
2018-Jul-14 13:30N 31°58' W 119°23'1 2.8
2018-Jul-14 13:00N 31°59' W 119°24'1 2.4
2018-Jul-14 12:30N 31°59' W 119°26'1 2.5
2018-Jul-14 12:00N 31°60' W 119°27'1 1.6
2018-Jul-14 11:30N 31°60' W 119°28'1 1.9
2018-Jul-14 11:00N 32°00' W 119°29'1 1.3
2018-Jul-14 10:30N 32°00' W 119°30'0 0.2
2018-Jul-14 10:00N 32°00' W 119°30'0 0.5
2018-Jul-14 09:30N 32°00' W 119°30'0 0.8
2018-Jul-14 09:00N 32°01' W 119°30'1 1.7
2018-Jul-14 08:22N 32°02' W 119°31'3 8.0
2018-Jul-14 08:00N 31°60' W 119°28'612.0
2018-Jul-14 07:30N 31°56' W 119°22'611.8
2018-Jul-14 07:00N 31°53' W 119°17'611.8
2018-Jul-14 06:30N 31°49' W 119°11'612.0
2018-Jul-14 06:00N 31°46' W 119°05'612.0
2018-Jul-14 05:30N 31°42' W 118°60'611.8
2018-Jul-14 05:00N 31°39' W 118°54'611.8
2018-Jul-14 04:30N 31°36' W 118°48'611.5
2018-Jul-14 04:00N 31°32' W 118°43'611.6
2018-Jul-14 03:30N 31°29' W 118°37'611.5
2018-Jul-14 03:00N 31°26' W 118°31'5 9.3
2018-Jul-14 02:30N 31°24' W 118°27'3 5.6
2018-Jul-14 02:00N 31°22' W 118°24'3 6.8
2018-Jul-14 01:30N 31°20' W 118°21'3 5.3
2018-Jul-14 01:00N 31°18' W 118°19'0 0.8
2018-Jul-14 00:30N 31°18' W 118°18'0 0.6
2018-Jul-14 00:00N 31°18' W 118°19'0 0.8
2018-Jul-13 23:30N 31°17' W 118°18'2 4.8
2018-Jul-13 23:00N 31°16' W 118°16'610.5
2018-Jul-13 22:26N 31°13' W 118°10'512.3
2018-Jul-13 22:00N 31°10' W 118°05'1012.6
2018-Jul-13 21:10N 31°04' W 117°55'212.7
2018-Jul-13 21:00N 31°02' W 117°53'612.8
2018-Jul-13 20:30N 30°58' W 117°47'812.0
2018-Jul-13 19:49N 30°51' W 117°42'411.1
2018-Jul-13 19:28N 30°48' W 117°40'  

Dump ship's entire track history